KDZB

Horseshoe Bay Resort Airport

Horseshoe Bay, Texas, USA
METAR KDZB 230755Z AUTO 00000KT 2SM BR OVC003 06/06 A3021 RMK AO2 LTG DSNT NW T00550055
Observed Flight Rules
Feb-23 @ 07:55 UTC (16 minutes ago) Instrument Flight Rules
Wind Visibility Clouds Conditions
Calm 2 miles
  • Overcast at 300' AGL
  • Mist
Temperatures Readings
Current 6°C / 43°F
Dewpoint 6°C / 43°F
Humidity 100%
Altimeter 30.21" Hg
Pressure 1023 hPa
Elevation 334
METAR KDZB 230755Z AUTO 00000KT 2SM BR OVC003 06/06 A3021 RMK AO2 LTG DSNT NW T00550055
Observed Flight Rules
Feb-23 @ 07:55 UTC
(16 minutes ago)
LIFR
Wind Visibility
Calm 2 miles
Clouds
  • Overcast at 300' AGL
Conditions
  • Mist
Temperature Dewpoint
6°C / 43°F 6°C / 43°F
Humidity Altimeter Pressure
100% 30.21" Hg 1023 hPa